createdAt,value
2022-07-31T00:00:29.503Z,100868.13
2022-07-31T00:02:59.717Z,100871.00
2022-07-31T00:05:28.629Z,100869.31
2022-07-31T00:07:56.956Z,100866.81
2022-07-31T00:10:25.569Z,100866.81
2022-07-31T00:12:54.109Z,100863.41
2022-07-31T00:15:22.915Z,100866.09
2022-07-31T00:17:51.850Z,100861.69
2022-07-31T00:20:22.384Z,100862.44
2022-07-31T00:22:50.950Z,100860.53
2022-07-31T00:25:20.059Z,100865.88
2022-07-31T00:27:48.561Z,100858.81
2022-07-31T00:30:17.544Z,100856.13
2022-07-31T00:32:46.674Z,100857.97
2022-07-31T00:35:17.433Z,100861.59
2022-07-31T00:37:47.318Z,100846.41
2022-07-31T00:40:17.988Z,100852.63
2022-07-31T00:42:46.909Z,100849.09
2022-07-31T00:45:15.221Z,100849.09
2022-07-31T00:47:44.747Z,100847.28
2022-07-31T00:50:13.857Z,100851.00
2022-07-31T00:52:44.140Z,100848.53
2022-07-31T00:55:13.868Z,100850.50
2022-07-31T00:57:43.546Z,100839.25
2022-07-31T01:00:14.779Z,100837.00
2022-07-31T01:02:46.279Z,100844.69
2022-07-31T01:05:18.759Z,100841.69
2022-07-31T01:07:48.798Z,100842.28
2022-07-31T01:10:44.231Z,100853.69
2022-07-31T01:13:21.563Z,100848.72
2022-07-31T01:15:51.641Z,100846.56
2022-07-31T01:18:20.685Z,100840.69
2022-07-31T01:20:52.068Z,100843.66
2022-07-31T01:23:55.076Z,100850.44
2022-07-31T01:26:51.755Z,100845.72
2022-07-31T01:29:28.274Z,100840.97
2022-07-31T01:32:03.576Z,100839.66
2022-07-31T01:34:41.068Z,100837.47
2022-07-31T01:37:16.848Z,100834.34
2022-07-31T01:39:53.240Z,100843.47
2022-07-31T01:42:24.280Z,100836.44
2022-07-31T01:45:01.073Z,100828.66
2022-07-31T01:47:32.702Z,100823.31
2022-07-31T01:50:04.783Z,100833.13
2022-07-31T01:52:35.456Z,100826.94
2022-07-31T01:55:06.030Z,100832.28
2022-07-31T01:57:37.109Z,100835.03
2022-07-31T02:00:33.448Z,100836.91
2022-07-31T02:03:09.290Z,100841.56
2022-07-31T02:05:41.997Z,100841.00
2022-07-31T02:08:13.624Z,100837.66
2022-07-31T02:10:46.616Z,100840.63
2022-07-31T02:13:17.835Z,100835.69
2022-07-31T02:15:49.214Z,100830.63
2022-07-31T02:18:21.824Z,100824.75
2022-07-31T02:21:11.800Z,100822.34
2022-07-31T02:23:40.570Z,100827.75
2022-07-31T02:26:10.039Z,100818.25
2022-07-31T02:28:42.219Z,100811.22
2022-07-31T02:31:15.568Z,100815.78
2022-07-31T02:33:49.188Z,100813.22
2022-07-31T02:36:19.160Z,100804.47
2022-07-31T02:38:48.732Z,100806.47
2022-07-31T02:41:19.256Z,100812.00
2022-07-31T02:43:49.319Z,100813.22
2022-07-31T02:46:24.223Z,100818.13
2022-07-31T02:48:53.891Z,100812.97
2022-07-31T02:51:25.433Z,100815.56
2022-07-31T02:53:55.701Z,100813.56
2022-07-31T02:56:27.106Z,100810.66
2022-07-31T02:58:55.769Z,100807.69
2022-07-31T03:01:28.947Z,100805.56
2022-07-31T03:03:58.033Z,100802.47
2022-07-31T03:06:29.314Z,100804.53
2022-07-31T03:08:57.713Z,100806.44
2022-07-31T03:11:26.771Z,100811.94
2022-07-31T03:13:58.260Z,100806.78
2022-07-31T03:16:29.446Z,100801.53
2022-07-31T03:19:02.191Z,100808.66
2022-07-31T03:21:31.872Z,100815.78
2022-07-31T03:24:01.733Z,100812.94
2022-07-31T03:26:32.125Z,100813.63
2022-07-31T03:29:02.124Z,100809.09
2022-07-31T03:31:31.997Z,100810.78
2022-07-31T03:34:00.338Z,100811.66
2022-07-31T03:36:30.570Z,100815.16
2022-07-31T03:38:59.577Z,100811.75
2022-07-31T03:41:44.469Z,100815.34
2022-07-31T03:44:13.254Z,100813.63
2022-07-31T03:46:43.221Z,100812.59
2022-07-31T03:49:11.888Z,100807.97
2022-07-31T03:51:40.889Z,100811.22
2022-07-31T03:54:09.345Z,100811.78
2022-07-31T03:56:49.477Z,100809.84
2022-07-31T03:59:20.427Z,100807.84
2022-07-31T04:01:57.977Z,100813.00
2022-07-31T04:04:39.111Z,100818.31
2022-07-31T04:07:07.765Z,100816.78
2022-07-31T04:09:36.334Z,100815.34
2022-07-31T04:12:07.620Z,100819.88
2022-07-31T04:14:36.272Z,100816.38
2022-07-31T04:17:06.704Z,100819.88
2022-07-31T04:19:35.202Z,100820.72
2022-07-31T04:22:05.221Z,100815.34
2022-07-31T04:24:35.005Z,100825.09
2022-07-31T04:27:22.055Z,100832.16
2022-07-31T04:29:51.100Z,100830.22
2022-07-31T04:32:24.025Z,100830.84
2022-07-31T04:34:56.122Z,100823.34
2022-07-31T04:37:24.617Z,100827.47
2022-07-31T04:39:53.147Z,100821.78
2022-07-31T04:42:21.794Z,100826.75
2022-07-31T04:44:50.377Z,100821.94
2022-07-31T04:47:18.828Z,100827.75
2022-07-31T04:49:52.410Z,100834.59
2022-07-31T04:52:20.780Z,100831.59
2022-07-31T04:54:51.272Z,100831.34
2022-07-31T04:57:21.929Z,100830.31
2022-07-31T04:59:58.985Z,100833.91
2022-07-31T05:02:30.157Z,100833.22
2022-07-31T05:05:02.412Z,100836.84
2022-07-31T05:07:40.071Z,100831.34
2022-07-31T05:10:34.211Z,100838.28
2022-07-31T05:13:03.159Z,100837.34
2022-07-31T05:15:33.103Z,100830.13
2022-07-31T05:18:01.705Z,100836.13
2022-07-31T05:20:50.603Z,100835.06
2022-07-31T05:23:29.322Z,100833.16
2022-07-31T05:26:10.964Z,100832.13
2022-07-31T05:28:40.288Z,100839.84
2022-07-31T05:31:10.885Z,100838.69
2022-07-31T05:33:39.509Z,100842.72
2022-07-31T05:36:09.972Z,100837.56
2022-07-31T05:38:38.372Z,100830.75
2022-07-31T05:41:33.300Z,100834.53
2022-07-31T05:44:20.422Z,100829.78
2022-07-31T05:49:17.261Z,100837.97
2022-07-31T05:51:54.236Z,100841.97
2022-07-31T05:54:23.152Z,100829.97
2022-07-31T05:57:10.093Z,100838.53
2022-07-31T05:59:43.276Z,100827.66
2022-07-31T06:02:12.552Z,100824.81
2022-07-31T06:04:58.701Z,100824.59
2022-07-31T06:07:30.599Z,100827.28
2022-07-31T06:09:58.993Z,100829.00
2022-07-31T06:12:27.428Z,100833.06
2022-07-31T06:14:55.888Z,100822.88
2022-07-31T06:17:44.079Z,100832.72
2022-07-31T06:20:29.015Z,100826.59
2022-07-31T06:22:59.185Z,100832.06
2022-07-31T06:25:35.087Z,100828.81
2022-07-31T06:28:10.608Z,100836.22
2022-07-31T06:30:41.309Z,100829.59
2022-07-31T06:33:17.217Z,100832.06
2022-07-31T06:35:58.237Z,100844.25
2022-07-31T06:38:40.194Z,100839.53
2022-07-31T06:41:47.617Z,100846.28
2022-07-31T06:44:45.843Z,100842.34
2022-07-31T06:47:41.132Z,100844.28
2022-07-31T06:50:32.003Z,100854.97
2022-07-31T06:53:13.651Z,100848.88
2022-07-31T06:55:44.448Z,100844.53
2022-07-31T06:58:13.340Z,100843.78
2022-07-31T07:00:41.780Z,100849.00
2022-07-31T07:03:10.200Z,100845.13
2022-07-31T07:05:40.958Z,100849.56
2022-07-31T07:08:11.201Z,100844.53
2022-07-31T07:10:39.542Z,100846.75
2022-07-31T07:13:45.829Z,100840.88
2022-07-31T07:16:18.649Z,100838.00
2022-07-31T07:18:47.039Z,100835.19
2022-07-31T07:21:15.489Z,100834.72
2022-07-31T07:23:44.456Z,100833.19
2022-07-31T07:26:20.084Z,100832.88
2022-07-31T07:28:50.221Z,100828.25
2022-07-31T07:31:19.632Z,100831.19
2022-07-31T07:33:48.897Z,100833.31
2022-07-31T07:36:22.663Z,100826.41
2022-07-31T07:39:02.496Z,100822.03
2022-07-31T07:41:33.012Z,100824.16
2022-07-31T07:44:03.668Z,100824.69
2022-07-31T07:46:32.404Z,100813.41
2022-07-31T07:49:06.676Z,100820.00
2022-07-31T07:51:59.102Z,100817.81
2022-07-31T07:54:42.820Z,100811.97
2022-07-31T07:57:24.037Z,100807.06
2022-07-31T08:00:11.836Z,100806.09
2022-07-31T08:03:47.440Z,100806.13
2022-07-31T08:05:41.661Z,100802.94
2022-07-31T08:08:11.107Z,100804.34
2022-07-31T08:10:58.253Z,100798.03
2022-07-31T08:13:36.331Z,100794.63
2022-07-31T08:16:27.193Z,100792.81
2022-07-31T08:18:58.652Z,100797.53
2022-07-31T08:21:27.700Z,100798.06
2022-07-31T08:23:56.455Z,100792.31
2022-07-31T08:26:28.194Z,100787.56
2022-07-31T08:28:57.676Z,100778.56
2022-07-31T08:31:30.056Z,100779.56
2022-07-31T08:34:31.069Z,100777.75
2022-07-31T08:37:51.802Z,100769.16
2022-07-31T08:39:51.700Z,100776.22
2022-07-31T08:42:20.299Z,100768.72
2022-07-31T08:44:48.704Z,100772.13
2022-07-31T08:47:23.534Z,100771.84
2022-07-31T08:49:53.777Z,100766.00
2022-07-31T08:52:24.941Z,100763.63
2022-07-31T08:54:59.756Z,100774.66
2022-07-31T08:57:29.060Z,100770.69
2022-07-31T08:59:57.823Z,100763.88
2022-07-31T09:02:27.493Z,100767.72
2022-07-31T09:05:25.180Z,100762.72
2022-07-31T09:07:55.788Z,100758.59
2022-07-31T09:10:26.920Z,100755.00
2022-07-31T09:12:56.688Z,100753.66
2022-07-31T09:15:29.982Z,100741.84
2022-07-31T09:18:02.455Z,100754.47
2022-07-31T09:20:32.788Z,100737.88
2022-07-31T09:23:08.639Z,100740.59
2022-07-31T09:25:41.800Z,100739.75
2022-07-31T09:28:10.172Z,100742.28
2022-07-31T09:30:56.204Z,100734.81
2022-07-31T09:33:52.492Z,100733.44
2022-07-31T09:37:08.235Z,100719.25
2022-07-31T09:39:59.775Z,100720.44
2022-07-31T09:42:48.561Z,100723.22
2022-07-31T09:45:29.238Z,100718.63
2022-07-31T09:48:05.807Z,100723.16
2022-07-31T09:50:36.524Z,100718.59
2022-07-31T09:53:06.633Z,100712.22
2022-07-31T09:55:36.558Z,100716.59
2022-07-31T09:58:05.573Z,100714.19
2022-07-31T10:00:43.275Z,100706.66
2022-07-31T10:03:17.588Z,100704.63
2022-07-31T10:05:48.779Z,100699.91
2022-07-31T10:08:18.823Z,100690.78
2022-07-31T10:11:20.472Z,100697.34
2022-07-31T10:14:01.416Z,100701.63
2022-07-31T10:16:37.284Z,100699.63
2022-07-31T10:19:33.144Z,100699.97
2022-07-31T10:22:24.029Z,100691.50
2022-07-31T10:24:55.021Z,100691.47
2022-07-31T10:27:23.775Z,100688.72
2022-07-31T10:30:02.300Z,100691.41
2022-07-31T10:32:30.971Z,100679.28
2022-07-31T10:35:22.513Z,100677.16
2022-07-31T10:38:12.532Z,100677.97
2022-07-31T10:41:13.356Z,100679.13
2022-07-31T10:43:49.004Z,100677.59
2022-07-31T10:46:29.823Z,100664.19
2022-07-31T10:49:43.841Z,100665.97
2022-07-31T10:52:33.432Z,100657.44
2022-07-31T10:55:22.193Z,100659.97
2022-07-31T10:58:11.421Z,100648.00
2022-07-31T11:00:52.815Z,100651.44
2022-07-31T11:03:49.662Z,100641.69
2022-07-31T11:06:41.390Z,100633.13
2022-07-31T11:09:30.249Z,100631.78
2022-07-31T11:12:31.875Z,100624.03
2022-07-31T11:15:24.408Z,100624.00
2022-07-31T11:18:26.473Z,100610.31
2022-07-31T11:21:36.031Z,100609.59
2022-07-31T11:24:03.053Z,100604.94
2022-07-31T11:26:41.282Z,100601.53
2022-07-31T11:29:59.620Z,100602.16
2022-07-31T11:32:12.547Z,100604.78
2022-07-31T11:34:48.280Z,100593.88
2022-07-31T11:37:20.549Z,100599.28
2022-07-31T11:39:51.616Z,100598.59
2022-07-31T11:42:27.757Z,100575.84
2022-07-31T11:45:11.321Z,100570.53
2022-07-31T11:48:12.915Z,100580.19
2022-07-31T11:50:32.327Z,100570.66
2022-07-31T11:53:06.940Z,100565.50
2022-07-31T11:55:47.398Z,100566.72
2022-07-31T11:58:16.985Z,100554.16
2022-07-31T12:00:52.485Z,100553.47
2022-07-31T12:03:23.334Z,100549.59
2022-07-31T12:05:54.047Z,100540.94
2022-07-31T12:08:25.394Z,100549.50
2022-07-31T12:10:54.959Z,100542.50
2022-07-31T12:13:25.587Z,100539.19
2022-07-31T12:16:01.444Z,100544.56
2022-07-31T12:18:31.165Z,100527.47
2022-07-31T12:21:01.772Z,100522.22
2022-07-31T12:23:41.904Z,100549.72
2022-07-31T12:26:14.120Z,100519.66
2022-07-31T12:28:43.639Z,100514.94
2022-07-31T12:31:13.747Z,100511.22
2022-07-31T12:33:43.642Z,100504.50
2022-07-31T12:36:16.989Z,100505.09
2022-07-31T12:38:48.344Z,100503.47
2022-07-31T12:41:18.082Z,100490.88
2022-07-31T12:43:51.927Z,100487.44
2022-07-31T12:46:24.219Z,100479.47
2022-07-31T12:48:52.537Z,100488.59
2022-07-31T12:51:45.942Z,100503.94
2022-07-31T12:54:10.255Z,100491.53
2022-07-31T12:56:39.545Z,100485.66
2022-07-31T12:59:09.231Z,100482.66
2022-07-31T13:01:39.246Z,100469.19
2022-07-31T13:04:18.917Z,100483.09
2022-07-31T13:06:52.122Z,100470.25
2022-07-31T13:09:21.132Z,100463.31
2022-07-31T13:11:53.220Z,100467.75
2022-07-31T13:14:24.513Z,100468.63
2022-07-31T13:16:55.569Z,100458.31
2022-07-31T13:19:24.007Z,100457.84
2022-07-31T13:21:52.338Z,100444.66
2022-07-31T13:24:25.286Z,100445.97
2022-07-31T13:26:53.776Z,100433.94
2022-07-31T13:29:22.164Z,100439.41
2022-07-31T13:31:54.051Z,100446.22
2022-07-31T13:34:22.412Z,100434.50
2022-07-31T13:36:50.704Z,100446.59
2022-07-31T13:39:19.096Z,100429.09
2022-07-31T13:41:47.420Z,100443.84
2022-07-31T13:44:16.764Z,100423.94
2022-07-31T13:46:45.119Z,100418.41
2022-07-31T13:49:15.525Z,100426.72
2022-07-31T13:51:44.064Z,100423.41
2022-07-31T13:54:12.953Z,100418.56
2022-07-31T13:56:43.519Z,100415.44
2022-07-31T13:59:14.203Z,100426.19
2022-07-31T14:02:03.222Z,100424.66
2022-07-31T14:04:38.269Z,100423.84
2022-07-31T14:07:09.092Z,100418.91
2022-07-31T14:09:37.929Z,100417.19
2022-07-31T14:12:07.552Z,100411.25
2022-07-31T14:14:37.956Z,100403.50
2022-07-31T14:17:06.265Z,100395.53
2022-07-31T14:19:44.224Z,100404.81
2022-07-31T14:22:14.845Z,100399.16
2022-07-31T14:24:50.060Z,100389.97
2022-07-31T14:27:20.832Z,100393.19
2022-07-31T14:29:49.382Z,100404.47
2022-07-31T14:32:19.134Z,100389.66
2022-07-31T14:34:49.104Z,100383.41
2022-07-31T14:37:17.390Z,100393.84
2022-07-31T14:39:45.922Z,100390.50
2022-07-31T14:42:14.486Z,100380.50
2022-07-31T14:44:43.059Z,100387.16
2022-07-31T14:47:12.439Z,100375.66
2022-07-31T14:50:09.279Z,100379.34
2022-07-31T14:52:31.973Z,100381.19
2022-07-31T14:55:01.634Z,100393.16
2022-07-31T14:57:31.392Z,100378.72
2022-07-31T14:59:59.880Z,100378.66
2022-07-31T15:02:28.347Z,100376.53
2022-07-31T15:04:56.768Z,100383.59
2022-07-31T15:07:46.341Z,100377.44
2022-07-31T15:10:15.409Z,100382.00
2022-07-31T15:12:43.849Z,100378.06
2022-07-31T15:15:12.723Z,100379.72
2022-07-31T15:17:41.037Z,100384.28
2022-07-31T15:20:10.819Z,100378.00
2022-07-31T15:22:39.156Z,100374.44
2022-07-31T15:25:09.473Z,100381.84
2022-07-31T15:27:39.140Z,100371.69
2022-07-31T15:30:08.953Z,100380.53
2022-07-31T15:32:39.847Z,100370.72
2022-07-31T15:35:12.359Z,100378.25
2022-07-31T15:37:44.128Z,100380.03
2022-07-31T15:40:15.523Z,100369.63
2022-07-31T15:42:48.993Z,100356.97
2022-07-31T15:45:19.639Z,100359.09
2022-07-31T15:47:49.465Z,100358.13
2022-07-31T15:50:20.167Z,100350.03
2022-07-31T15:52:49.360Z,100346.97
2022-07-31T15:55:19.658Z,100348.53
2022-07-31T15:57:49.348Z,100344.34
2022-07-31T16:00:18.381Z,100339.31
2022-07-31T16:02:46.665Z,100341.78
2022-07-31T16:05:21.552Z,100338.47
2022-07-31T16:08:31.637Z,100344.84
2022-07-31T16:10:54.946Z,100335.97
2022-07-31T16:13:26.237Z,100338.63
2022-07-31T16:15:54.924Z,100334.59
2022-07-31T16:18:23.326Z,100336.25
2022-07-31T16:20:51.743Z,100331.72
2022-07-31T16:23:20.211Z,100337.06
2022-07-31T16:25:48.623Z,100348.03
2022-07-31T16:28:16.934Z,100336.88
2022-07-31T16:30:46.779Z,100335.00
2022-07-31T16:33:15.149Z,100336.38
2022-07-31T16:35:43.452Z,100332.44
2022-07-31T16:38:11.784Z,100317.41
2022-07-31T16:40:40.429Z,100317.03
2022-07-31T16:43:47.652Z,100322.56
2022-07-31T16:45:58.735Z,100320.09
2022-07-31T16:48:27.015Z,100324.22
2022-07-31T16:50:55.451Z,100322.06
2022-07-31T16:54:10.637Z,100328.34
2022-07-31T16:56:13.718Z,100312.28
2022-07-31T16:58:44.163Z,100314.59
2022-07-31T17:01:57.350Z,100315.28
2022-07-31T17:04:04.686Z,100318.09
2022-07-31T17:06:36.327Z,100317.81
2022-07-31T17:09:16.161Z,100322.31
2022-07-31T17:11:48.656Z,100326.38
2022-07-31T17:14:18.123Z,100316.97
2022-07-31T17:16:49.781Z,100317.03
2022-07-31T17:19:42.419Z,100323.03
2022-07-31T17:22:11.128Z,100318.66
2022-07-31T17:24:41.415Z,100316.81
2022-07-31T17:27:10.823Z,100321.22
2022-07-31T17:29:39.650Z,100321.78
2022-07-31T17:32:11.129Z,100323.78
2022-07-31T17:34:40.267Z,100330.69
2022-07-31T17:37:09.024Z,100327.97
2022-07-31T17:39:37.896Z,100332.97
2022-07-31T17:42:06.609Z,100335.22
2022-07-31T17:44:37.748Z,100334.25
2022-07-31T17:47:10.087Z,100339.81
2022-07-31T17:49:38.823Z,100339.06
2022-07-31T17:52:07.626Z,100332.13
2022-07-31T17:54:36.060Z,100342.13
2022-07-31T17:57:05.336Z,100346.69
2022-07-31T17:59:33.733Z,100349.16
2022-07-31T18:02:03.692Z,100358.28
2022-07-31T18:04:37.964Z,100357.56
2022-07-31T18:07:09.030Z,100368.50
2022-07-31T18:09:37.533Z,100362.00
2022-07-31T18:12:07.582Z,100367.97
2022-07-31T18:14:38.251Z,100373.13
2022-07-31T18:17:07.114Z,100369.13
2022-07-31T18:19:36.865Z,100375.94
2022-07-31T18:22:05.531Z,100374.28
2022-07-31T18:24:34.164Z,100372.78
2022-07-31T18:27:02.497Z,100379.38
2022-07-31T18:29:30.928Z,100380.44
2022-07-31T18:31:59.278Z,100378.06
2022-07-31T18:34:27.657Z,100380.09
2022-07-31T18:36:57.385Z,100374.88
2022-07-31T18:39:26.070Z,100381.31
2022-07-31T18:41:54.601Z,100388.38
2022-07-31T18:44:23.114Z,100388.22
2022-07-31T18:46:51.614Z,100395.34
2022-07-31T18:51:00.948Z,100389.03
2022-07-31T18:52:11.224Z,100388.50
2022-07-31T18:54:40.289Z,100390.22
2022-07-31T18:57:09.066Z,100392.88
2022-07-31T18:59:38.351Z,100402.69
2022-07-31T19:02:11.482Z,100396.22
2022-07-31T19:04:40.811Z,100404.13
2022-07-31T19:07:10.507Z,100400.25
2022-07-31T19:09:39.158Z,100412.69
2022-07-31T19:12:08.924Z,100417.53
2022-07-31T19:14:39.898Z,100411.81
2022-07-31T19:17:08.609Z,100425.13
2022-07-31T19:19:52.714Z,100415.94
2022-07-31T19:22:28.040Z,100425.84
2022-07-31T19:24:56.375Z,100425.81
2022-07-31T19:27:46.978Z,100429.47
2022-07-31T19:30:14.772Z,100429.53
2022-07-31T19:32:43.235Z,100435.88
2022-07-31T19:35:11.917Z,100434.84
2022-07-31T19:37:41.560Z,100437.47
2022-07-31T19:40:11.565Z,100442.66
2022-07-31T19:42:40.428Z,100446.94
2022-07-31T19:45:09.874Z,100454.13
2022-07-31T19:47:38.249Z,100461.84
2022-07-31T19:50:07.970Z,100453.63
2022-07-31T19:52:36.260Z,100458.81
2022-07-31T19:55:07.615Z,100459.25
2022-07-31T19:57:36.188Z,100460.88
2022-07-31T20:00:05.650Z,100468.56
2022-07-31T20:02:34.015Z,100465.47
2022-07-31T20:05:02.821Z,100469.78
2022-07-31T20:07:33.098Z,100466.69
2022-07-31T20:10:02.096Z,100472.66
2022-07-31T20:12:31.774Z,100471.59
2022-07-31T20:15:00.557Z,100475.84
2022-07-31T20:17:29.267Z,100473.72
2022-07-31T20:20:12.627Z,100477.03
2022-07-31T20:22:44.446Z,100480.47
2022-07-31T20:25:19.977Z,100480.22
2022-07-31T20:27:50.915Z,100475.56
2022-07-31T20:30:21.975Z,100472.63
2022-07-31T20:32:51.472Z,100474.88
2022-07-31T20:35:32.843Z,100482.53
2022-07-31T20:38:09.036Z,100486.81
2022-07-31T20:40:52.903Z,100482.03
2022-07-31T20:43:25.239Z,100487.94
2022-07-31T20:45:54.441Z,100484.84
2022-07-31T20:48:24.481Z,100489.78
2022-07-31T20:50:53.790Z,100488.56
2022-07-31T20:53:23.040Z,100486.28
2022-07-31T20:55:51.457Z,100486.84
2022-07-31T20:58:20.198Z,100487.41
2022-07-31T21:00:50.642Z,100482.75
2022-07-31T21:03:19.581Z,100487.84
2022-07-31T21:05:48.486Z,100486.72
2022-07-31T21:08:17.512Z,100488.50
2022-07-31T21:10:46.248Z,100492.75
2022-07-31T21:13:14.741Z,100496.00
2022-07-31T21:15:45.311Z,100492.19
2022-07-31T21:18:16.672Z,100498.06
2022-07-31T21:20:50.123Z,100499.50
2022-07-31T21:23:22.814Z,100501.16
2022-07-31T21:25:52.468Z,100508.78
2022-07-31T21:28:21.659Z,100509.31
2022-07-31T21:30:50.533Z,100515.25
2022-07-31T21:33:20.442Z,100516.63
2022-07-31T21:35:49.448Z,100510.78
2022-07-31T21:38:18.528Z,100512.03
2022-07-31T21:40:48.243Z,100518.53
2022-07-31T21:43:22.185Z,100525.84
2022-07-31T21:45:57.552Z,100514.41
2022-07-31T21:48:35.552Z,100523.44
2022-07-31T21:51:04.792Z,100524.44
2022-07-31T21:53:33.073Z,100528.94
2022-07-31T21:56:03.748Z,100539.81
2022-07-31T21:58:32.065Z,100534.72
2022-07-31T22:01:00.501Z,100534.00
2022-07-31T22:03:28.847Z,100546.69
2022-07-31T22:06:15.956Z,100537.22
2022-07-31T22:08:44.932Z,100542.13
2022-07-31T22:11:13.341Z,100542.66
2022-07-31T22:13:41.832Z,100547.28
2022-07-31T22:16:10.358Z,100547.72
2022-07-31T22:18:39.241Z,100547.97
2022-07-31T22:21:09.932Z,100551.88
2022-07-31T22:23:39.073Z,100551.56
2022-07-31T22:26:08.287Z,100554.59
2022-07-31T22:28:37.005Z,100561.38
2022-07-31T22:31:05.932Z,100560.88
2022-07-31T22:33:34.434Z,100558.44
2022-07-31T22:36:07.057Z,100566.75
2022-07-31T22:38:37.984Z,100570.53
2022-07-31T22:41:06.636Z,100572.47
2022-07-31T22:44:11.626Z,100570.91
2022-07-31T22:46:23.782Z,100567.03
2022-07-31T22:48:53.688Z,100577.03
2022-07-31T22:51:22.198Z,100581.94
2022-07-31T22:53:52.025Z,100575.09
2022-07-31T22:56:20.844Z,100576.22
2022-07-31T22:58:49.110Z,100588.06
2022-07-31T23:01:17.500Z,100593.41
2022-07-31T23:03:45.880Z,100597.06
2022-07-31T23:06:30.867Z,100598.03
2022-07-31T23:09:02.621Z,100601.72
2022-07-31T23:11:31.147Z,100597.31
2022-07-31T23:13:59.573Z,100604.38
2022-07-31T23:16:28.121Z,100604.38
2022-07-31T23:18:56.696Z,100606.09
2022-07-31T23:21:25.546Z,100601.47
2022-07-31T23:23:53.980Z,100608.63
2022-07-31T23:26:26.188Z,100602.41
2022-07-31T23:28:56.832Z,100603.41
2022-07-31T23:31:25.721Z,100604.38
2022-07-31T23:33:55.208Z,100601.81
2022-07-31T23:36:23.956Z,100604.66
2022-07-31T23:38:53.132Z,100609.00
2022-07-31T23:41:36.755Z,100604.66
2022-07-31T23:44:05.683Z,100613.63
2022-07-31T23:46:40.429Z,100606.59
2022-07-31T23:49:09.709Z,100601.22
2022-07-31T23:51:38.172Z,100597.81
2022-07-31T23:54:07.617Z,100607.53
2022-07-31T23:56:37.228Z,100602.19
2022-07-31T23:59:05.683Z,100602.31
